createdAt,value
2022-11-24T00:00:51.284Z,7.74
2022-11-24T00:03:18.075Z,7.81
2022-11-24T00:05:44.563Z,7.85
2022-11-24T00:08:11.874Z,7.97
2022-11-24T00:10:38.262Z,7.89
2022-11-24T00:13:04.636Z,8.01
2022-11-24T00:15:31.008Z,7.92
2022-11-24T00:17:57.463Z,8.03
2022-11-24T00:20:23.845Z,7.95
2022-11-24T00:22:50.232Z,7.81
2022-11-24T00:25:16.683Z,8.01
2022-11-24T00:27:43.088Z,8.04
2022-11-24T00:30:09.872Z,7.88
2022-11-24T00:32:36.239Z,7.81
2022-11-24T00:35:02.684Z,7.81
2022-11-24T00:37:29.105Z,7.94
2022-11-24T00:39:55.490Z,8.00
2022-11-24T00:42:21.867Z,7.93
2022-11-24T00:44:48.239Z,7.96
2022-11-24T00:47:14.750Z,8.03
2022-11-24T00:49:41.202Z,8.04
2022-11-24T00:52:07.605Z,8.14
2022-11-24T00:54:34.311Z,8.14
2022-11-24T00:57:01.049Z,8.16
2022-11-24T00:59:27.466Z,8.20
2022-11-24T01:01:53.864Z,8.21
2022-11-24T01:04:20.351Z,8.04
2022-11-24T01:06:46.813Z,8.11
2022-11-24T01:09:13.198Z,8.12
2022-11-24T01:11:58.245Z,8.07
2022-11-24T01:14:25.108Z,8.03
2022-11-24T01:16:51.673Z,7.93
2022-11-24T01:19:18.406Z,7.90
2022-11-24T01:21:44.972Z,7.92
2022-11-24T01:24:11.847Z,7.92
2022-11-24T01:26:38.444Z,7.90
2022-11-24T01:29:04.853Z,7.79
2022-11-24T01:31:32.921Z,7.58
2022-11-24T01:33:59.361Z,7.83
2022-11-24T01:36:25.783Z,7.85
2022-11-24T01:38:52.194Z,7.78
2022-11-24T01:41:21.330Z,7.80
2022-11-24T01:43:48.607Z,7.55
2022-11-24T01:46:18.460Z,7.69
2022-11-24T01:49:05.088Z,7.55
2022-11-24T01:51:34.479Z,7.69
2022-11-24T01:54:07.760Z,7.68
2022-11-24T01:56:35.471Z,7.68
2022-11-24T01:59:03.231Z,7.53
2022-11-24T02:01:31.417Z,7.59
2022-11-24T02:03:58.372Z,7.77
2022-11-24T02:06:29.895Z,7.75
2022-11-24T02:09:13.718Z,7.67
2022-11-24T02:11:40.379Z,7.68
2022-11-24T02:14:09.466Z,7.79
2022-11-24T02:16:36.623Z,7.77
2022-11-24T02:19:06.495Z,7.76
2022-11-24T02:21:32.879Z,7.78
2022-11-24T02:24:04.112Z,7.81
2022-11-24T02:26:46.282Z,7.92
2022-11-24T02:29:14.254Z,7.93
2022-11-24T02:32:01.320Z,7.84
2022-11-24T02:34:27.996Z,8.03
2022-11-24T02:36:54.396Z,7.87
2022-11-24T02:39:20.862Z,8.02
2022-11-24T02:41:52.343Z,7.85
2022-11-24T02:44:20.526Z,8.04
2022-11-24T02:46:46.910Z,8.11
2022-11-24T02:49:13.289Z,8.17
2022-11-24T02:51:39.712Z,8.20
2022-11-24T02:54:06.097Z,8.12
2022-11-24T02:56:32.525Z,8.24
2022-11-24T02:58:58.897Z,8.27
2022-11-24T03:01:25.358Z,8.03
2022-11-24T03:03:51.784Z,8.29
2022-11-24T03:06:18.171Z,8.31
2022-11-24T03:08:44.760Z,8.31
2022-11-24T03:11:11.123Z,8.33
2022-11-24T03:13:37.495Z,8.28
2022-11-24T03:16:08.490Z,8.37
2022-11-24T03:18:34.927Z,8.26
2022-11-24T03:21:01.368Z,8.37
2022-11-24T03:23:27.792Z,8.32
2022-11-24T03:25:54.908Z,8.40
2022-11-24T03:28:21.273Z,8.20
2022-11-24T03:30:50.951Z,8.30
2022-11-24T03:33:17.353Z,8.40
2022-11-24T03:35:43.930Z,8.26
2022-11-24T03:38:10.355Z,8.37
2022-11-24T03:40:36.737Z,8.33
2022-11-24T03:43:03.115Z,8.35
2022-11-24T03:45:45.434Z,8.35
2022-11-24T03:48:13.199Z,8.35
2022-11-24T03:50:39.682Z,8.26
2022-11-24T03:53:06.061Z,8.33
2022-11-24T03:55:32.442Z,8.20
2022-11-24T03:57:58.814Z,8.30
2022-11-24T04:00:25.207Z,8.30
2022-11-24T04:02:51.619Z,8.26
2022-11-24T04:05:18.103Z,8.27
2022-11-24T04:07:44.547Z,8.31
2022-11-24T04:10:11.125Z,8.35
2022-11-24T04:12:46.500Z,8.24
2022-11-24T04:15:15.431Z,8.28
2022-11-24T04:17:42.008Z,8.38
2022-11-24T04:20:09.464Z,8.35
2022-11-24T04:22:35.818Z,8.29
2022-11-24T04:25:02.651Z,8.49
2022-11-24T04:27:29.143Z,8.35
2022-11-24T04:29:55.519Z,8.34
2022-11-24T04:32:21.928Z,8.54
2022-11-24T04:34:48.283Z,8.56
2022-11-24T04:37:14.673Z,8.59
2022-11-24T04:39:41.126Z,8.42
2022-11-24T04:42:07.500Z,8.39
2022-11-24T04:44:34.273Z,8.51
2022-11-24T04:47:01.283Z,8.56
2022-11-24T04:49:27.755Z,8.53
2022-11-24T04:51:54.123Z,8.55
2022-11-24T04:54:20.545Z,8.50
2022-11-24T04:56:50.320Z,8.53
2022-11-24T04:59:17.218Z,8.60
2022-11-24T05:01:44.518Z,8.63
2022-11-24T05:04:11.979Z,8.50
2022-11-24T05:06:38.611Z,8.51
2022-11-24T05:09:17.739Z,8.50
2022-11-24T05:11:44.294Z,8.51
2022-11-24T05:14:10.698Z,8.53
2022-11-24T05:16:37.739Z,8.58
2022-11-24T05:19:04.222Z,8.50
2022-11-24T05:21:30.619Z,8.32
2022-11-24T05:23:56.983Z,8.52
2022-11-24T05:26:23.369Z,8.51
2022-11-24T05:28:49.775Z,8.33
2022-11-24T05:31:16.213Z,8.37
2022-11-24T05:33:43.239Z,8.39
2022-11-24T05:36:29.843Z,8.14
2022-11-24T05:38:56.207Z,8.17
2022-11-24T05:41:22.708Z,8.03
2022-11-24T05:43:49.103Z,8.02
2022-11-24T05:46:15.578Z,8.02
2022-11-24T05:48:42.014Z,7.95
2022-11-24T05:51:09.488Z,7.71
2022-11-24T05:53:36.104Z,7.95
2022-11-24T05:56:03.881Z,7.86
2022-11-24T05:58:30.240Z,7.81
2022-11-24T06:00:56.661Z,7.67
2022-11-24T06:03:23.660Z,7.57
2022-11-24T06:05:50.083Z,7.54
2022-11-24T06:08:16.519Z,7.60
2022-11-24T06:10:42.934Z,7.65
2022-11-24T06:13:09.383Z,7.53
2022-11-24T06:15:37.557Z,7.59
2022-11-24T06:18:04.044Z,7.55
2022-11-24T06:20:32.906Z,7.58
2022-11-24T06:23:00.059Z,7.41
2022-11-24T06:25:26.699Z,7.60
2022-11-24T06:27:53.124Z,7.56
2022-11-24T06:30:19.617Z,7.67
2022-11-24T06:32:49.383Z,7.56
2022-11-24T06:35:16.452Z,7.55
2022-11-24T06:37:42.815Z,7.65
2022-11-24T06:40:09.684Z,7.63
2022-11-24T06:42:37.130Z,7.61
2022-11-24T06:45:08.806Z,7.56
2022-11-24T06:47:35.940Z,7.51
2022-11-24T06:50:02.689Z,7.50
2022-11-24T06:52:29.047Z,7.49
2022-11-24T06:54:55.534Z,7.50
2022-11-24T06:57:21.984Z,7.59
2022-11-24T06:59:48.470Z,7.62
2022-11-24T07:02:14.921Z,7.60
2022-11-24T07:04:41.266Z,7.50
2022-11-24T07:07:07.737Z,7.64
2022-11-24T07:09:34.227Z,7.95
2022-11-24T07:12:02.241Z,7.81
2022-11-24T07:14:28.602Z,7.70
2022-11-24T07:16:55.085Z,7.69
2022-11-24T07:19:24.852Z,7.71
2022-11-24T07:21:51.673Z,7.58
2022-11-24T07:24:18.041Z,7.68
2022-11-24T07:26:44.434Z,7.59
2022-11-24T07:29:10.796Z,7.60
2022-11-24T07:31:37.202Z,7.56
2022-11-24T07:34:03.669Z,7.66
2022-11-24T07:36:30.099Z,7.43
2022-11-24T07:38:56.546Z,7.40
2022-11-24T07:41:23.003Z,7.52
2022-11-24T07:43:49.512Z,7.63
2022-11-24T07:46:18.884Z,7.74
2022-11-24T07:48:45.832Z,7.76
2022-11-24T07:51:12.652Z,7.78
2022-11-24T07:53:39.219Z,7.82
2022-11-24T07:56:06.294Z,7.82
2022-11-24T07:58:35.891Z,7.84
2022-11-24T08:01:13.221Z,7.72
2022-11-24T08:03:39.978Z,7.85
2022-11-24T08:08:53.144Z,7.86
2022-11-24T08:11:19.659Z,7.97
2022-11-24T08:13:46.144Z,7.98
2022-11-24T08:16:15.015Z,8.02
2022-11-24T08:18:41.731Z,8.15
2022-11-24T08:21:12.195Z,8.05
2022-11-24T08:23:38.751Z,8.11
2022-11-24T08:26:08.678Z,8.16
2022-11-24T08:28:35.854Z,8.20
2022-11-24T08:31:10.483Z,8.23
2022-11-24T08:33:37.215Z,8.19
2022-11-24T08:36:05.464Z,8.29
2022-11-24T08:38:32.251Z,8.25
2022-11-24T08:41:11.476Z,8.08
2022-11-24T08:43:38.573Z,8.16
2022-11-24T08:46:07.257Z,8.04
2022-11-24T08:48:34.191Z,8.14
2022-11-24T08:51:07.217Z,7.94
2022-11-24T08:53:34.657Z,8.01
2022-11-24T08:56:01.352Z,8.21
2022-11-24T08:58:31.469Z,8.38
2022-11-24T09:01:09.802Z,8.48
2022-11-24T09:03:37.537Z,8.43
2022-11-24T09:06:04.138Z,8.41
2022-11-24T09:08:31.427Z,8.57
2022-11-24T09:11:17.099Z,8.78
2022-11-24T09:13:43.811Z,8.79
2022-11-24T09:16:21.695Z,8.74
2022-11-24T09:18:48.576Z,8.61
2022-11-24T09:21:18.111Z,8.83
2022-11-24T09:23:46.177Z,8.63
2022-11-24T09:26:20.877Z,8.63
2022-11-24T09:28:48.059Z,8.76
2022-11-24T09:31:16.753Z,8.78
2022-11-24T09:33:43.782Z,8.77
2022-11-24T09:36:10.472Z,8.87
2022-11-24T09:38:37.082Z,8.98
2022-11-24T09:41:34.553Z,9.09
2022-11-24T09:44:23.742Z,9.17
2022-11-24T09:47:02.941Z,9.50
2022-11-24T09:49:48.486Z,9.39
2022-11-24T09:52:22.212Z,9.36
2022-11-24T09:54:56.682Z,9.38
2022-11-24T09:57:25.875Z,9.36
2022-11-24T09:59:52.307Z,9.43
2022-11-24T10:02:18.773Z,9.46
2022-11-24T10:04:46.519Z,9.63
2022-11-24T10:07:21.166Z,9.59
2022-11-24T10:10:09.571Z,9.67
2022-11-24T10:13:05.158Z,9.71
2022-11-24T10:15:57.258Z,10.43
2022-11-24T10:19:00.870Z,10.83
2022-11-24T10:21:51.147Z,11.28
2022-11-24T10:24:20.443Z,11.57
2022-11-24T10:26:51.910Z,11.55
2022-11-24T10:29:24.947Z,11.33
2022-11-24T10:31:54.256Z,11.18
2022-11-24T10:34:34.437Z,10.98
2022-11-24T10:37:34.679Z,11.42
2022-11-24T10:40:40.605Z,11.78
2022-11-24T10:43:01.260Z,12.38
2022-11-24T10:45:28.902Z,12.58
2022-11-24T10:47:55.637Z,12.86
2022-11-24T10:50:23.841Z,12.86
2022-11-24T10:53:08.555Z,13.07
2022-11-24T10:55:56.764Z,12.63
2022-11-24T10:58:42.642Z,12.22
2022-11-24T11:01:15.336Z,11.70
2022-11-24T11:03:49.482Z,11.32
2022-11-24T11:06:25.660Z,11.47
2022-11-24T11:09:24.704Z,11.23
2022-11-24T11:11:53.130Z,11.09
2022-11-24T11:14:31.169Z,11.18
2022-11-24T11:16:58.003Z,11.11
2022-11-24T11:19:54.233Z,10.98
2022-11-24T11:22:29.179Z,11.04
2022-11-24T11:25:41.042Z,10.94
2022-11-24T11:28:28.598Z,10.87
2022-11-24T11:31:18.110Z,11.00
2022-11-24T11:34:04.585Z,11.09
2022-11-24T11:36:33.617Z,11.09
2022-11-24T11:39:00.071Z,10.85
2022-11-24T11:41:31.637Z,11.06
2022-11-24T11:44:21.605Z,11.02
2022-11-24T11:46:48.179Z,10.99
2022-11-24T11:49:14.691Z,10.86
2022-11-24T11:51:52.975Z,11.07
2022-11-24T11:54:34.724Z,10.79
2022-11-24T11:57:24.855Z,10.99
2022-11-24T12:00:08.065Z,10.94
2022-11-24T12:02:51.700Z,10.97
2022-11-24T12:05:53.926Z,10.95
2022-11-24T12:08:56.025Z,10.91
2022-11-24T12:11:33.009Z,10.91
2022-11-24T12:14:31.504Z,10.95
2022-11-24T12:17:07.545Z,10.92
2022-11-24T12:19:45.485Z,10.69
2022-11-24T12:22:39.083Z,10.89
2022-11-24T12:25:28.130Z,10.99
2022-11-24T12:28:24.359Z,11.07
2022-11-24T12:31:06.961Z,11.12
2022-11-24T12:33:52.374Z,11.14
2022-11-24T12:36:35.670Z,10.83
2022-11-24T12:39:07.000Z,11.10
2022-11-24T12:41:53.082Z,10.88
2022-11-24T12:44:30.959Z,11.13
2022-11-24T12:47:30.798Z,11.67
2022-11-24T12:50:14.131Z,11.48
2022-11-24T12:52:58.675Z,11.33
2022-11-24T12:55:26.537Z,11.30
2022-11-24T12:58:11.200Z,11.19
2022-11-24T13:01:08.327Z,11.17
2022-11-24T13:03:46.374Z,11.12
2022-11-24T13:06:23.730Z,11.14
2022-11-24T13:08:50.173Z,11.19
2022-11-24T13:11:25.171Z,11.16
2022-11-24T13:14:04.713Z,11.18
2022-11-24T13:16:48.530Z,11.17
2022-11-24T13:19:20.932Z,11.10
2022-11-24T13:21:51.706Z,11.10
2022-11-24T13:24:19.264Z,11.25
2022-11-24T13:26:48.943Z,11.44
2022-11-24T13:29:25.492Z,11.32
2022-11-24T13:31:52.226Z,11.20
2022-11-24T13:34:40.514Z,11.22
2022-11-24T13:37:31.459Z,11.21
2022-11-24T13:40:14.217Z,11.19
2022-11-24T13:43:12.726Z,11.20
2022-11-24T13:45:39.061Z,11.25
2022-11-24T13:48:21.492Z,11.23
2022-11-24T13:50:51.871Z,11.24
2022-11-24T13:53:33.311Z,11.32
2022-11-24T13:56:02.641Z,11.28
2022-11-24T13:58:35.982Z,11.19
2022-11-24T14:01:07.220Z,11.33
2022-11-24T14:03:47.533Z,11.12
2022-11-24T14:06:40.383Z,11.27
2022-11-24T14:09:27.008Z,11.26
2022-11-24T14:12:12.181Z,11.21
2022-11-24T14:14:39.185Z,11.37
2022-11-24T14:17:19.765Z,11.34
2022-11-24T14:19:53.997Z,11.34
2022-11-24T14:22:21.825Z,11.19
2022-11-24T14:24:53.035Z,11.32
2022-11-24T14:27:26.664Z,11.27
2022-11-24T14:29:58.529Z,11.00
2022-11-24T14:32:25.047Z,11.12
2022-11-24T14:34:52.116Z,11.01
2022-11-24T14:37:19.571Z,11.10
2022-11-24T14:39:46.501Z,11.02
2022-11-24T14:42:23.060Z,11.04
2022-11-24T14:44:58.654Z,11.01
2022-11-24T14:47:33.771Z,10.89
2022-11-24T14:50:19.212Z,10.88
2022-11-24T14:52:55.654Z,10.75
2022-11-24T14:55:30.359Z,10.83
2022-11-24T14:57:57.404Z,10.85
2022-11-24T15:00:28.434Z,10.68
2022-11-24T15:03:08.454Z,10.59
2022-11-24T15:05:55.622Z,10.39
2022-11-24T15:08:24.230Z,10.51
2022-11-24T15:10:57.328Z,10.38
2022-11-24T15:13:24.499Z,10.42
2022-11-24T15:16:17.295Z,10.30
2022-11-24T15:18:46.734Z,10.18
2022-11-24T15:21:18.925Z,10.25
2022-11-24T15:24:14.091Z,10.08
2022-11-24T15:26:42.291Z,9.90
2022-11-24T15:29:10.241Z,10.04
2022-11-24T15:31:37.316Z,10.03
2022-11-24T15:34:03.853Z,9.95
2022-11-24T15:36:30.225Z,9.98
2022-11-24T15:38:56.578Z,9.90
2022-11-24T15:41:29.063Z,9.66
2022-11-24T15:43:59.091Z,9.71
2022-11-24T15:46:27.095Z,9.76
2022-11-24T15:48:53.961Z,9.64
2022-11-24T15:51:20.883Z,9.67
2022-11-24T15:53:51.172Z,9.52
2022-11-24T15:56:25.366Z,9.61
2022-11-24T15:58:52.698Z,9.56
2022-11-24T16:01:20.653Z,9.53
2022-11-24T16:03:48.660Z,9.53
2022-11-24T16:06:24.073Z,9.43
2022-11-24T16:08:52.072Z,9.37
2022-11-24T16:11:18.440Z,9.37
2022-11-24T16:13:50.316Z,9.27
2022-11-24T16:16:19.642Z,9.27
2022-11-24T16:18:46.125Z,9.17
2022-11-24T16:21:12.504Z,9.17
2022-11-24T16:23:38.920Z,9.12
2022-11-24T16:26:06.856Z,9.03
2022-11-24T16:28:33.243Z,9.14
2022-11-24T16:30:59.692Z,9.09
2022-11-24T16:33:26.144Z,8.97
2022-11-24T16:35:52.530Z,8.93
2022-11-24T16:38:19.662Z,9.00
2022-11-24T16:40:52.864Z,9.03
2022-11-24T16:43:19.626Z,9.00
2022-11-24T16:45:46.481Z,8.99
2022-11-24T16:48:12.935Z,8.98
2022-11-24T16:50:39.321Z,8.89
2022-11-24T16:53:05.808Z,8.91
2022-11-24T16:55:32.178Z,8.90
2022-11-24T16:57:58.539Z,8.75
2022-11-24T17:00:24.938Z,8.95
2022-11-24T17:02:51.482Z,8.95
2022-11-24T17:05:17.949Z,8.89
2022-11-24T17:07:44.401Z,8.94
2022-11-24T17:10:11.876Z,8.95
2022-11-24T17:12:38.406Z,8.97
2022-11-24T17:18:22.194Z,9.00
2022-11-24T17:20:38.347Z,8.99
2022-11-24T17:23:04.703Z,9.03
2022-11-24T17:25:32.279Z,8.97
2022-11-24T17:27:58.838Z,9.08
2022-11-24T17:30:25.311Z,9.01
2022-11-24T17:32:56.616Z,9.01
2022-11-24T17:35:23.587Z,9.02
2022-11-24T17:37:50.003Z,8.96
2022-11-24T17:40:34.358Z,8.91
2022-11-24T17:43:00.822Z,8.81
2022-11-24T17:45:29.045Z,8.94
2022-11-24T17:47:56.222Z,8.63
2022-11-24T17:50:26.131Z,8.79
2022-11-24T17:52:53.583Z,8.79
2022-11-24T17:55:20.048Z,8.77
2022-11-24T17:57:46.452Z,8.89
2022-11-24T18:00:13.532Z,8.81
2022-11-24T18:02:40.042Z,8.81
2022-11-24T18:05:06.835Z,8.82
2022-11-24T18:07:35.925Z,8.90
2022-11-24T18:10:02.333Z,8.83
2022-11-24T18:12:28.739Z,8.72
2022-11-24T18:14:55.201Z,8.79
2022-11-24T18:17:21.592Z,8.82
2022-11-24T18:19:47.959Z,8.78
2022-11-24T18:22:14.306Z,8.68
2022-11-24T18:24:40.947Z,8.78
2022-11-24T18:27:07.414Z,8.90
2022-11-24T18:29:33.819Z,8.83
2022-11-24T18:32:00.289Z,8.89
2022-11-24T18:34:26.781Z,8.80
2022-11-24T18:36:53.251Z,8.76
2022-11-24T18:39:19.667Z,8.80
2022-11-24T18:41:46.679Z,8.82
2022-11-24T18:44:13.088Z,8.80
2022-11-24T18:46:39.446Z,8.84
2022-11-24T18:49:06.919Z,8.81
2022-11-24T18:51:33.714Z,8.69
2022-11-24T18:54:02.005Z,8.76
2022-11-24T18:56:29.053Z,8.88
2022-11-24T18:58:56.300Z,8.53
2022-11-24T19:01:25.103Z,8.69
2022-11-24T19:03:54.014Z,8.72
2022-11-24T19:06:22.131Z,8.67
2022-11-24T19:08:48.891Z,8.66
2022-11-24T19:11:26.300Z,8.51
2022-11-24T19:13:52.745Z,8.72
2022-11-24T19:16:20.288Z,8.59
2022-11-24T19:18:53.634Z,8.56
2022-11-24T19:21:21.191Z,8.57
2022-11-24T19:23:47.797Z,8.61
2022-11-24T19:26:14.211Z,8.45
2022-11-24T19:28:40.576Z,8.37
2022-11-24T19:31:09.153Z,8.53
2022-11-24T19:33:36.426Z,8.56
2022-11-24T19:36:14.323Z,8.25
2022-11-24T19:38:41.818Z,8.48
2022-11-24T19:41:13.527Z,8.48
2022-11-24T19:43:40.722Z,8.54
2022-11-24T19:46:09.655Z,8.46
2022-11-24T19:48:43.656Z,8.38
2022-11-24T19:51:13.158Z,8.31
2022-11-24T19:53:39.625Z,8.42
2022-11-24T19:56:07.759Z,8.53
2022-11-24T19:58:34.787Z,8.44
2022-11-24T20:01:11.686Z,8.44
2022-11-24T20:03:39.062Z,8.59
2022-11-24T20:06:06.763Z,8.49
2022-11-24T20:08:34.551Z,8.55
2022-11-24T20:11:08.099Z,8.50
2022-11-24T20:13:35.942Z,8.31
2022-11-24T20:16:03.860Z,8.55
2022-11-24T20:18:31.574Z,8.60
2022-11-24T20:21:05.199Z,8.34
2022-11-24T20:23:31.979Z,8.40
2022-11-24T20:26:10.102Z,8.52
2022-11-24T20:28:37.015Z,8.50
2022-11-24T20:31:05.728Z,8.52
2022-11-24T20:33:32.230Z,8.50
2022-11-24T20:36:03.634Z,8.48
2022-11-24T20:38:30.720Z,8.39
2022-11-24T20:41:16.494Z,8.53
2022-11-24T20:43:44.177Z,8.44
2022-11-24T20:46:11.985Z,8.49
2022-11-24T20:48:38.971Z,8.61
2022-11-24T20:51:07.895Z,8.61
2022-11-24T20:53:35.166Z,8.64
2022-11-24T20:56:06.661Z,8.35
2022-11-24T20:58:34.502Z,8.59
2022-11-24T21:01:09.792Z,8.67
2022-11-24T21:03:42.598Z,8.71
2022-11-24T21:06:11.650Z,8.75
2022-11-24T21:08:39.153Z,8.74
2022-11-24T21:11:06.694Z,8.75
2022-11-24T21:13:34.454Z,8.71
2022-11-24T21:16:16.638Z,8.82
2022-11-24T21:18:44.582Z,8.97
2022-11-24T21:21:11.794Z,8.71
2022-11-24T21:23:38.374Z,8.92
2022-11-24T21:26:07.449Z,8.93
2022-11-24T21:28:36.848Z,8.78
2022-11-24T21:31:08.288Z,8.88
2022-11-24T21:33:38.547Z,8.89
2022-11-24T21:36:05.643Z,8.90
2022-11-24T21:38:32.059Z,8.82
2022-11-24T21:41:06.308Z,8.83
2022-11-24T21:43:33.185Z,8.94
2022-11-24T21:46:01.170Z,8.94
2022-11-24T21:48:27.618Z,8.98
2022-11-24T21:50:54.018Z,9.03
2022-11-24T21:53:20.383Z,9.08
2022-11-24T21:56:00.834Z,9.05
2022-11-24T21:58:27.995Z,9.10
2022-11-24T22:00:54.929Z,9.12
2022-11-24T22:03:21.594Z,9.18
2022-11-24T22:05:55.086Z,9.09
2022-11-24T22:08:22.145Z,9.03
2022-11-24T22:10:48.506Z,8.97
2022-11-24T22:13:15.033Z,9.02
2022-11-24T22:15:41.384Z,9.02
2022-11-24T22:18:07.781Z,9.02
2022-11-24T22:20:34.399Z,9.08
2022-11-24T22:23:00.752Z,9.03
2022-11-24T22:25:27.119Z,9.09
2022-11-24T22:27:53.490Z,9.08
2022-11-24T22:30:19.922Z,8.96
2022-11-24T22:32:46.335Z,9.00
2022-11-24T22:35:12.695Z,9.02
2022-11-24T22:37:39.104Z,9.09
2022-11-24T22:40:06.134Z,9.14
2022-11-24T22:42:32.481Z,9.08
2022-11-24T22:44:58.835Z,9.02
2022-11-24T22:47:25.336Z,8.99
2022-11-24T22:49:51.734Z,9.01
2022-11-24T22:52:18.141Z,8.94
2022-11-24T22:54:44.548Z,8.96
2022-11-24T22:57:10.945Z,9.01
2022-11-24T22:59:37.429Z,9.09
2022-11-24T23:02:03.787Z,9.13
2022-11-24T23:04:30.278Z,9.01
2022-11-24T23:06:56.740Z,9.03
2022-11-24T23:09:23.090Z,8.95
2022-11-24T23:11:49.510Z,9.09
2022-11-24T23:14:16.250Z,9.12
2022-11-24T23:16:43.087Z,9.09
2022-11-24T23:19:09.638Z,9.05
2022-11-24T23:21:38.183Z,8.99
2022-11-24T23:24:08.626Z,9.01
2022-11-24T23:26:37.045Z,9.04
2022-11-24T23:29:04.602Z,9.13
2022-11-24T23:31:31.219Z,9.00
2022-11-24T23:34:00.584Z,9.03
2022-11-24T23:36:27.919Z,9.07
2022-11-24T23:38:54.500Z,9.02
2022-11-24T23:41:23.291Z,9.10
2022-11-24T23:43:50.080Z,9.04
2022-11-24T23:46:17.681Z,9.12
2022-11-24T23:48:44.882Z,9.01
2022-11-24T23:51:16.836Z,8.92
2022-11-24T23:53:43.874Z,8.96
2022-11-24T23:56:16.042Z,8.91
2022-11-24T23:58:42.676Z,8.95
